KESF

Esler Regional Airport

Alexandria, Louisiana, USA
METAR KESF 242353Z AUTO 00000KT 10SM CLR 28/23 A2999 RMK AO2 SLP155 T02780228 10322 20278 56008
Observed Flight Rules
May-24 @ 23:53 UTC (58 minutes ago) Visual Flight Rules
Visibility Clouds
10 miles
  • Clear skies
Temperatures Readings
Current 28°C / 82°F
Dewpoint 23°C / 73°F
Humidity 74%
Altimeter 29.99" Hg
Pressure 1015.5 hPa
Elevation 28
METAR KESF 242353Z AUTO 00000KT 10SM CLR 28/23 A2999 RMK AO2 SLP155 T02780228 10322 20278 56008
Observed Flight Rules
May-24 @ 23:53 UTC
(58 minutes ago)
VFR
Clouds
  • Clear skies
Temperature Dewpoint
28°C / 82°F 23°C / 73°F
Humidity Altimeter Pressure
74% 29.99" Hg 1015.5 hPa